sensor_id;sensor_type;location;lat;lon;timestamp;temperature;humidity
71523;HTU21D;59343;51.102;5.884;2024-01-30T00:00:00;9.03;79.99
71523;HTU21D;59343;51.102;5.884;2024-01-30T00:02:26;9.02;79.97
71523;HTU21D;59343;51.102;5.884;2024-01-30T00:04:52;9.01;79.92
71523;HTU21D;59343;51.102;5.884;2024-01-30T00:07:18;8.98;79.84
71523;HTU21D;59343;51.102;5.884;2024-01-30T00:09:46;8.97;80.02
71523;HTU21D;59343;51.102;5.884;2024-01-30T00:12:13;8.95;80.10
71523;HTU21D;59343;51.102;5.884;2024-01-30T00:14:42;8.96;80.04
71523;HTU21D;59343;51.102;5.884;2024-01-30T00:17:09;8.93;79.98
71523;HTU21D;59343;51.102;5.884;2024-01-30T00:19:35;8.91;80.06
71523;HTU21D;59343;51.102;5.884;2024-01-30T00:22:01;8.90;80.20
71523;HTU21D;59343;51.102;5.884;2024-01-30T00:24:27;8.90;80.40
71523;HTU21D;59343;51.102;5.884;2024-01-30T00:26:53;8.91;80.41
71523;HTU21D;59343;51.102;5.884;2024-01-30T00:29:18;8.89;80.46
71523;HTU21D;59343;51.102;5.884;2024-01-30T00:31:48;8.86;80.57
71523;HTU21D;59343;51.102;5.884;2024-01-30T00:34:14;8.86;80.76
71523;HTU21D;59343;51.102;5.884;2024-01-30T00:36:40;8.86;80.81
71523;HTU21D;59343;51.102;5.884;2024-01-30T00:39:06;8.88;80.78
71523;HTU21D;59343;51.102;5.884;2024-01-30T00:41:34;8.87;80.68
71523;HTU21D;59343;51.102;5.884;2024-01-30T00:44:00;8.86;80.80
71523;HTU21D;59343;51.102;5.884;2024-01-30T00:46:26;8.87;80.81
71523;HTU21D;59343;51.102;5.884;2024-01-30T00:48:52;8.86;80.70
71523;HTU21D;59343;51.102;5.884;2024-01-30T00:51:18;8.81;80.65
71523;HTU21D;59343;51.102;5.884;2024-01-30T00:53:45;8.79;80.40
71523;HTU21D;59343;51.102;5.884;2024-01-30T00:56:10;8.76;80.21
71523;HTU21D;59343;51.102;5.884;2024-01-30T00:58:36;8.70;80.12
71523;HTU21D;59343;51.102;5.884;2024-01-30T01:01:03;8.66;80.02
71523;HTU21D;59343;51.102;5.884;2024-01-30T01:03:29;8.63;80.06
71523;HTU21D;59343;51.102;5.884;2024-01-30T01:05:55;8.58;80.15
71523;HTU21D;59343;51.102;5.884;2024-01-30T01:08:21;8.56;80.22
71523;HTU21D;59343;51.102;5.884;2024-01-30T01:10:47;8.53;80.13
71523;HTU21D;59343;51.102;5.884;2024-01-30T01:13:13;8.50;80.11
71523;HTU21D;59343;51.102;5.884;2024-01-30T01:15:39;8.47;80.12
71523;HTU21D;59343;51.102;5.884;2024-01-30T01:18:05;8.43;80.11
71523;HTU21D;59343;51.102;5.884;2024-01-30T01:20:31;8.41;80.11
71523;HTU21D;59343;51.102;5.884;2024-01-30T01:22:57;8.37;80.14
71523;HTU21D;59343;51.102;5.884;2024-01-30T01:25:23;8.34;80.14
71523;HTU21D;59343;51.102;5.884;2024-01-30T01:27:49;8.31;80.18
71523;HTU21D;59343;51.102;5.884;2024-01-30T01:30:17;8.27;80.23
71523;HTU21D;59343;51.102;5.884;2024-01-30T01:32:51;8.26;80.34
71523;HTU21D;59343;51.102;5.884;2024-01-30T01:35:24;8.24;80.43
71523;HTU21D;59343;51.102;5.884;2024-01-30T01:37:54;8.22;80.59
71523;HTU21D;59343;51.102;5.884;2024-01-30T01:40:25;8.20;80.65
71523;HTU21D;59343;51.102;5.884;2024-01-30T01:42:54;8.18;80.70
71523;HTU21D;59343;51.102;5.884;2024-01-30T01:45:21;8.16;80.61
71523;HTU21D;59343;51.102;5.884;2024-01-30T01:47:50;8.12;80.52
71523;HTU21D;59343;51.102;5.884;2024-01-30T01:50:17;8.08;80.64
71523;HTU21D;59343;51.102;5.884;2024-01-30T01:52:48;8.06;80.59
71523;HTU21D;59343;51.102;5.884;2024-01-30T01:55:15;8.03;80.56
71523;HTU21D;59343;51.102;5.884;2024-01-30T01:57:43;8.01;80.51
71523;HTU21D;59343;51.102;5.884;2024-01-30T02:00:10;7.99;80.50
71523;HTU21D;59343;51.102;5.884;2024-01-30T02:02:39;7.94;80.51
71523;HTU21D;59343;51.102;5.884;2024-01-30T02:05:05;7.91;80.56
71523;HTU21D;59343;51.102;5.884;2024-01-30T02:07:31;7.89;80.56
71523;HTU21D;59343;51.102;5.884;2024-01-30T02:09:57;7.87;80.70
71523;HTU21D;59343;51.102;5.884;2024-01-30T02:12:23;7.85;80.84
71523;HTU21D;59343;51.102;5.884;2024-01-30T02:14:49;7.83;81.03
71523;HTU21D;59343;51.102;5.884;2024-01-30T02:17:16;7.86;81.49
71523;HTU21D;59343;51.102;5.884;2024-01-30T02:19:42;7.92;82.16
71523;HTU21D;59343;51.102;5.884;2024-01-30T02:22:09;8.01;82.55
71523;HTU21D;59343;51.102;5.884;2024-01-30T02:24:35;8.06;82.33
71523;HTU21D;59343;51.102;5.884;2024-01-30T02:27:01;8.07;81.94
71523;HTU21D;59343;51.102;5.884;2024-01-30T02:29:26;8.07;81.83
71523;HTU21D;59343;51.102;5.884;2024-01-30T02:31:52;8.08;82.05
71523;HTU21D;59343;51.102;5.884;2024-01-30T02:34:19;8.14;82.28
71523;HTU21D;59343;51.102;5.884;2024-01-30T02:36:45;8.17;82.65
71523;HTU21D;59343;51.102;5.884;2024-01-30T02:39:11;8.23;82.99
71523;HTU21D;59343;51.102;5.884;2024-01-30T02:41:40;8.32;83.40
71523;HTU21D;59343;51.102;5.884;2024-01-30T02:44:06;8.39;83.65
71523;HTU21D;59343;51.102;5.884;2024-01-30T02:46:32;8.47;83.66
71523;HTU21D;59343;51.102;5.884;2024-01-30T02:48:58;8.57;83.62
71523;HTU21D;59343;51.102;5.884;2024-01-30T02:51:24;8.64;83.67
71523;HTU21D;59343;51.102;5.884;2024-01-30T02:53:50;8.71;83.54
71523;HTU21D;59343;51.102;5.884;2024-01-30T02:56:15;8.77;83.29
71523;HTU21D;59343;51.102;5.884;2024-01-30T02:58:41;8.77;82.91
71523;HTU21D;59343;51.102;5.884;2024-01-30T03:01:08;8.76;82.69
71523;HTU21D;59343;51.102;5.884;2024-01-30T03:03:34;8.76;82.67
71523;HTU21D;59343;51.102;5.884;2024-01-30T03:06:01;8.75;82.39
71523;HTU21D;59343;51.102;5.884;2024-01-30T03:08:28;8.71;82.15
71523;HTU21D;59343;51.102;5.884;2024-01-30T03:10:54;8.65;82.02
71523;HTU21D;59343;51.102;5.884;2024-01-30T03:13:19;8.61;82.14
71523;HTU21D;59343;51.102;5.884;2024-01-30T03:15:45;8.62;82.68
71523;HTU21D;59343;51.102;5.884;2024-01-30T03:18:11;8.59;82.61
71523;HTU21D;59343;51.102;5.884;2024-01-30T03:20:37;8.60;83.08
71523;HTU21D;59343;51.102;5.884;2024-01-30T03:23:03;8.64;83.53
71523;HTU21D;59343;51.102;5.884;2024-01-30T03:25:29;8.67;83.75
71523;HTU21D;59343;51.102;5.884;2024-01-30T03:27:55;8.74;83.88
71523;HTU21D;59343;51.102;5.884;2024-01-30T03:30:20;8.79;84.03
71523;HTU21D;59343;51.102;5.884;2024-01-30T03:32:46;8.87;84.23
71523;HTU21D;59343;51.102;5.884;2024-01-30T03:35:12;8.92;84.10
71523;HTU21D;59343;51.102;5.884;2024-01-30T03:37:38;8.97;83.85
71523;HTU21D;59343;51.102;5.884;2024-01-30T03:40:04;9.01;83.77
71523;HTU21D;59343;51.102;5.884;2024-01-30T03:42:30;9.04;83.76
71523;HTU21D;59343;51.102;5.884;2024-01-30T03:44:56;9.05;83.72
71523;HTU21D;59343;51.102;5.884;2024-01-30T03:47:22;9.10;83.79
71523;HTU21D;59343;51.102;5.884;2024-01-30T03:49:48;9.16;83.61
71523;HTU21D;59343;51.102;5.884;2024-01-30T03:52:14;9.19;83.58
71523;HTU21D;59343;51.102;5.884;2024-01-30T03:54:40;9.24;83.69
71523;HTU21D;59343;51.102;5.884;2024-01-30T03:57:05;9.30;83.74
71523;HTU21D;59343;51.102;5.884;2024-01-30T03:59:31;9.34;83.58
71523;HTU21D;59343;51.102;5.884;2024-01-30T04:01:57;9.38;83.49
71523;HTU21D;59343;51.102;5.884;2024-01-30T04:04:26;9.40;83.37
71523;HTU21D;59343;51.102;5.884;2024-01-30T04:06:52;9.41;83.50
71523;HTU21D;59343;51.102;5.884;2024-01-30T04:09:17;9.45;83.65
71523;HTU21D;59343;51.102;5.884;2024-01-30T04:11:44;9.49;83.92
71523;HTU21D;59343;51.102;5.884;2024-01-30T04:14:10;9.53;83.85
71523;HTU21D;59343;51.102;5.884;2024-01-30T04:16:36;9.59;83.87
71523;HTU21D;59343;51.102;5.884;2024-01-30T04:19:02;9.63;83.93
71523;HTU21D;59343;51.102;5.884;2024-01-30T04:21:28;9.66;83.81
71523;HTU21D;59343;51.102;5.884;2024-01-30T04:26:44;9.69;83.53
71523;HTU21D;59343;51.102;5.884;2024-01-30T04:29:11;9.68;83.52
71523;HTU21D;59343;51.102;5.884;2024-01-30T04:31:38;9.65;83.39
71523;HTU21D;59343;51.102;5.884;2024-01-30T04:34:04;9.66;83.36
71523;HTU21D;59343;51.102;5.884;2024-01-30T04:36:30;9.62;83.45
71523;HTU21D;59343;51.102;5.884;2024-01-30T04:38:56;9.59;83.66
71523;HTU21D;59343;51.102;5.884;2024-01-30T04:41:22;9.61;83.90
71523;HTU21D;59343;51.102;5.884;2024-01-30T04:43:49;9.64;83.96
71523;HTU21D;59343;51.102;5.884;2024-01-30T04:46:15;9.63;83.81
71523;HTU21D;59343;51.102;5.884;2024-01-30T04:48:41;9.63;83.81
71523;HTU21D;59343;51.102;5.884;2024-01-30T04:51:07;9.63;83.94
71523;HTU21D;59343;51.102;5.884;2024-01-30T04:53:33;9.61;83.80
71523;HTU21D;59343;51.102;5.884;2024-01-30T04:55:59;9.60;83.61
71523;HTU21D;59343;51.102;5.884;2024-01-30T04:58:25;9.59;83.66
71523;HTU21D;59343;51.102;5.884;2024-01-30T05:00:51;9.57;83.81
71523;HTU21D;59343;51.102;5.884;2024-01-30T05:03:19;9.56;83.82
71523;HTU21D;59343;51.102;5.884;2024-01-30T05:05:45;9.56;83.68
71523;HTU21D;59343;51.102;5.884;2024-01-30T05:08:11;9.54;83.73
71523;HTU21D;59343;51.102;5.884;2024-01-30T05:10:37;9.52;83.76
71523;HTU21D;59343;51.102;5.884;2024-01-30T05:13:03;9.55;83.95
71523;HTU21D;59343;51.102;5.884;2024-01-30T05:15:29;9.56;84.23
71523;HTU21D;59343;51.102;5.884;2024-01-30T05:17:56;9.65;84.87
71523;HTU21D;59343;51.102;5.884;2024-01-30T05:20:22;9.75;84.95
71523;HTU21D;59343;51.102;5.884;2024-01-30T05:22:49;9.82;84.99
71523;HTU21D;59343;51.102;5.884;2024-01-30T05:25:17;9.90;84.94
71523;HTU21D;59343;51.102;5.884;2024-01-30T05:27:43;9.94;84.83
71523;HTU21D;59343;51.102;5.884;2024-01-30T05:30:10;10.00;84.70
71523;HTU21D;59343;51.102;5.884;2024-01-30T05:32:36;10.07;84.74
71523;HTU21D;59343;51.102;5.884;2024-01-30T05:35:03;10.14;84.74
71523;HTU21D;59343;51.102;5.884;2024-01-30T05:37:29;10.19;84.49
71523;HTU21D;59343;51.102;5.884;2024-01-30T05:39:58;10.23;84.38
71523;HTU21D;59343;51.102;5.884;2024-01-30T05:42:29;10.26;84.17
71523;HTU21D;59343;51.102;5.884;2024-01-30T05:44:55;10.25;83.83
71523;HTU21D;59343;51.102;5.884;2024-01-30T05:47:23;10.25;83.78
71523;HTU21D;59343;51.102;5.884;2024-01-30T05:49:49;10.25;83.87
71523;HTU21D;59343;51.102;5.884;2024-01-30T05:52:16;10.30;84.09
71523;HTU21D;59343;51.102;5.884;2024-01-30T05:54:43;10.37;84.08
71523;HTU21D;59343;51.102;5.884;2024-01-30T05:57:12;10.42;83.91
71523;HTU21D;59343;51.102;5.884;2024-01-30T05:59:38;10.45;83.74
71523;HTU21D;59343;51.102;5.884;2024-01-30T06:02:04;10.50;83.79
71523;HTU21D;59343;51.102;5.884;2024-01-30T06:04:33;10.55;83.77
71523;HTU21D;59343;51.102;5.884;2024-01-30T06:06:59;10.65;83.46
71523;HTU21D;59343;51.102;5.884;2024-01-30T06:09:28;10.69;83.32
71523;HTU21D;59343;51.102;5.884;2024-01-30T06:11:55;10.78;83.08
71523;HTU21D;59343;51.102;5.884;2024-01-30T06:14:21;10.84;82.65
71523;HTU21D;59343;51.102;5.884;2024-01-30T06:16:47;10.87;82.42
71523;HTU21D;59343;51.102;5.884;2024-01-30T06:19:13;10.89;82.29
71523;HTU21D;59343;51.102;5.884;2024-01-30T06:21:39;10.90;82.23
71523;HTU21D;59343;51.102;5.884;2024-01-30T06:24:06;10.93;82.17
71523;HTU21D;59343;51.102;5.884;2024-01-30T06:28:05;11.00;81.88
71523;HTU21D;59343;51.102;5.884;2024-01-30T06:30:49;11.04;81.77
71523;HTU21D;59343;51.102;5.884;2024-01-30T06:34:01;11.12;81.53
71523;HTU21D;59343;51.102;5.884;2024-01-30T06:36:30;11.12;81.30
71523;HTU21D;59343;51.102;5.884;2024-01-30T06:39:05;11.12;81.33
71523;HTU21D;59343;51.102;5.884;2024-01-30T06:42:03;11.13;81.22
71523;HTU21D;59343;51.102;5.884;2024-01-30T06:44:50;11.14;81.25
71523;HTU21D;59343;51.102;5.884;2024-01-30T06:47:20;11.18;81.11
71523;HTU21D;59343;51.102;5.884;2024-01-30T06:50:28;11.19;81.03
71523;HTU21D;59343;51.102;5.884;2024-01-30T16:13:29;11.83;66.09
71523;HTU21D;59343;51.102;5.884;2024-01-30T16:17:32;11.84;66.19
71523;HTU21D;59343;51.102;5.884;2024-01-30T17:07:09;11.42;70.42
71523;HTU21D;59343;51.102;5.884;2024-01-30T19:28:39;9.99;77.37
71523;HTU21D;59343;51.102;5.884;2024-01-30T21:57:12;9.70;79.78
71523;HTU21D;59343;51.102;5.884;2024-01-30T22:01:14;9.71;79.74
71523;HTU21D;59343;51.102;5.884;2024-01-30T22:13:32;9.67;79.98
71523;HTU21D;59343;51.102;5.884;2024-01-30T22:17:32;9.66;80.10
71523;HTU21D;59343;51.102;5.884;2024-01-30T22:29:04;9.62;80.21
71523;HTU21D;59343;51.102;5.884;2024-01-30T22:33:12;9.63;80.29
71523;HTU21D;59343;51.102;5.884;2024-01-30T22:41:25;9.64;80.16
71523;HTU21D;59343;51.102;5.884;2024-01-30T22:49:47;9.57;80.48
71523;HTU21D;59343;51.102;5.884;2024-01-30T22:58:49;9.52;81.49
71523;HTU21D;59343;51.102;5.884;2024-01-30T23:11:30;9.41;83.00
71523;HTU21D;59343;51.102;5.884;2024-01-30T23:19:32;9.36;83.43
71523;HTU21D;59343;51.102;5.884;2024-01-30T23:28:47;9.34;83.91
